createdAt,value
2024-04-21T00:02:05.887Z,100374.86
2024-04-21T00:04:33.781Z,100372.27
2024-04-21T00:07:03.067Z,100360.15
2024-04-21T00:09:30.912Z,100357.69
2024-04-21T00:11:58.997Z,100353.94
2024-04-21T00:14:27.016Z,100350.89
2024-04-21T00:16:54.991Z,100350.20
2024-04-21T00:19:23.379Z,100348.17
2024-04-21T00:21:51.387Z,100349.11
2024-04-21T00:24:19.171Z,100351.23
2024-04-21T00:26:46.989Z,100351.23
2024-04-21T00:29:16.215Z,100345.27
2024-04-21T00:31:44.118Z,100347.45
2024-04-21T00:34:11.992Z,100347.42
2024-04-21T00:36:41.163Z,100343.39
2024-04-21T00:39:09.241Z,100340.27
2024-04-21T00:41:37.041Z,100338.79
2024-04-21T00:44:05.283Z,100329.86
2024-04-21T00:46:33.318Z,100328.80
2024-04-21T00:49:02.490Z,100329.98
2024-04-21T00:51:31.147Z,100323.48
2024-04-21T00:53:59.184Z,100321.07
2024-04-21T00:56:27.744Z,100324.04
2024-04-21T00:58:56.130Z,100322.27
2024-04-21T01:01:24.543Z,100319.20
2024-04-21T01:03:53.578Z,100315.89
2024-04-21T01:06:21.549Z,100309.39
2024-04-21T01:08:50.192Z,100306.46
2024-04-21T01:11:19.024Z,100306.16
2024-04-21T01:13:47.323Z,100307.02
2024-04-21T01:16:15.775Z,100306.80
2024-04-21T01:18:45.733Z,100308.11
2024-04-21T01:21:14.143Z,100306.21
2024-04-21T01:23:41.992Z,100304.29
2024-04-21T01:26:10.404Z,100299.83
2024-04-21T01:28:38.467Z,100298.36
2024-04-21T01:31:06.299Z,100292.45
2024-04-21T01:33:34.263Z,100294.19
2024-04-21T01:36:02.282Z,100288.27
2024-04-21T01:38:30.385Z,100285.08
2024-04-21T01:40:58.163Z,100278.23
2024-04-21T01:43:26.037Z,100273.73
2024-04-21T01:45:54.449Z,100273.04
2024-04-21T01:48:22.358Z,100270.94
2024-04-21T01:50:50.237Z,100270.26
2024-04-21T01:53:18.188Z,100271.98
2024-04-21T01:55:46.178Z,100270.17
2024-04-21T01:58:14.877Z,100269.70
2024-04-21T02:00:42.958Z,100270.23
2024-04-21T02:03:11.139Z,100272.36
2024-04-21T02:05:39.450Z,100267.86
2024-04-21T02:08:08.242Z,100271.25
2024-04-21T02:10:36.120Z,100270.05
2024-04-21T02:13:04.384Z,100267.88
2024-04-21T02:15:32.238Z,100270.03
2024-04-21T02:18:00.133Z,100270.77
2024-04-21T02:20:27.987Z,100266.50
2024-04-21T02:22:56.003Z,100270.49
2024-04-21T02:25:23.851Z,100269.67
2024-04-21T02:27:51.802Z,100269.27
2024-04-21T02:30:21.366Z,100267.85
2024-04-21T02:32:50.620Z,100271.02
2024-04-21T02:35:18.526Z,100266.70
2024-04-21T02:37:46.925Z,100266.80
2024-04-21T02:40:15.145Z,100265.21
2024-04-21T02:42:43.300Z,100265.89
2024-04-21T02:45:11.116Z,100265.14
2024-04-21T02:47:39.015Z,100263.79
2024-04-21T02:50:07.465Z,100262.39
2024-04-21T02:52:35.925Z,100259.11
2024-04-21T02:55:04.277Z,100257.75
2024-04-21T02:57:33.157Z,100257.30
2024-04-21T03:00:01.229Z,100252.46
2024-04-21T03:02:29.853Z,100258.10
2024-04-21T03:04:57.894Z,100257.78
2024-04-21T03:07:25.968Z,100255.66
2024-04-21T03:09:54.057Z,100256.63
2024-04-21T03:12:22.060Z,100258.60
2024-04-21T03:14:50.052Z,100263.71
2024-04-21T03:17:18.615Z,100259.60
2024-04-21T03:19:48.251Z,100260.84
2024-04-21T03:22:16.166Z,100259.45
2024-04-21T03:24:44.445Z,100256.90
2024-04-21T03:27:12.588Z,100256.04
2024-04-21T03:29:41.340Z,100255.59
2024-04-21T03:32:09.213Z,100257.13
2024-04-21T03:34:37.069Z,100260.42
2024-04-21T03:37:05.546Z,100257.18
2024-04-21T03:39:34.230Z,100261.60
2024-04-21T03:42:02.569Z,100261.56
2024-04-21T03:44:30.410Z,100260.84
2024-04-21T03:46:58.584Z,100260.29
2024-04-21T03:49:26.710Z,100260.61
2024-04-21T03:51:54.775Z,100265.20
2024-04-21T03:54:22.711Z,100268.27
2024-04-21T03:56:50.758Z,100269.20
2024-04-21T03:59:18.549Z,100273.09
2024-04-21T04:01:46.836Z,100272.54
2024-04-21T04:04:15.163Z,100270.28
2024-04-21T04:06:43.071Z,100272.45
2024-04-21T04:09:10.937Z,100273.50
2024-04-21T04:11:38.874Z,100277.79
2024-04-21T04:14:06.782Z,100280.01
2024-04-21T04:16:34.835Z,100280.42
2024-04-21T04:19:02.935Z,100282.56
2024-04-21T04:21:32.478Z,100283.39
2024-04-21T04:24:00.437Z,100279.39
2024-04-21T04:26:28.367Z,100284.77
2024-04-21T04:28:56.175Z,100288.44
2024-04-21T04:31:24.378Z,100285.59
2024-04-21T04:33:53.032Z,100286.91
2024-04-21T04:36:21.519Z,100287.88
2024-04-21T04:38:49.742Z,100288.52
2024-04-21T04:41:17.609Z,100289.73
2024-04-21T04:43:45.628Z,100296.39
2024-04-21T04:46:13.608Z,100290.50
2024-04-21T04:48:41.741Z,100292.81
2024-04-21T04:51:09.844Z,100300.05
2024-04-21T04:53:39.298Z,100302.71
2024-04-21T04:56:08.362Z,100303.39
2024-04-21T04:58:36.197Z,100308.17
2024-04-21T05:01:04.248Z,100308.79
2024-04-21T05:03:32.115Z,100312.40
2024-04-21T05:06:00.059Z,100309.79
2024-04-21T05:08:27.844Z,100309.97
2024-04-21T05:10:55.579Z,100314.11
2024-04-21T05:13:23.652Z,100311.84
2024-04-21T05:15:51.453Z,100316.98
2024-04-21T05:18:19.651Z,100319.67
2024-04-21T05:20:47.927Z,100323.65
2024-04-21T05:23:15.727Z,100319.21
2024-04-21T05:25:43.515Z,100325.27
2024-04-21T05:28:11.939Z,100326.04
2024-04-21T05:30:39.913Z,100326.81
2024-04-21T05:33:07.980Z,100324.91
2024-04-21T05:35:37.167Z,100325.46
2024-04-21T05:38:06.579Z,100326.27
2024-04-21T05:40:34.439Z,100328.52
2024-04-21T05:43:02.491Z,100333.65
2024-04-21T05:45:30.590Z,100333.57
2024-04-21T05:47:58.811Z,100338.23
2024-04-21T05:50:27.603Z,100343.61
2024-04-21T05:52:55.776Z,100341.83
2024-04-21T05:55:23.858Z,100340.79
2024-04-21T05:57:52.038Z,100343.77
2024-04-21T06:00:20.283Z,100344.45
2024-04-21T06:02:48.146Z,100346.38
2024-04-21T06:05:16.497Z,100349.11
2024-04-21T06:07:44.649Z,100350.42
2024-04-21T06:10:12.754Z,100349.57
2024-04-21T06:12:40.943Z,100349.52
2024-04-21T06:15:08.971Z,100349.06
2024-04-21T06:17:37.188Z,100357.66
2024-04-21T06:20:06.292Z,100352.98
2024-04-21T06:22:34.488Z,100356.66
2024-04-21T06:25:02.301Z,100362.15
2024-04-21T06:27:34.479Z,100365.00
2024-04-21T06:30:02.617Z,100359.52
2024-04-21T06:32:30.768Z,100362.19
2024-04-21T06:34:58.795Z,100359.80
2024-04-21T06:37:27.481Z,100361.02
2024-04-21T06:39:55.400Z,100360.06
2024-04-21T06:42:23.388Z,100359.88
2024-04-21T06:44:51.447Z,100359.41
2024-04-21T06:47:19.302Z,100355.09
2024-04-21T06:49:47.523Z,100358.39
2024-04-21T06:52:15.727Z,100359.89
2024-04-21T06:54:43.903Z,100360.40
2024-04-21T06:57:11.842Z,100360.77
2024-04-21T06:59:40.543Z,100361.52
2024-04-21T07:02:08.823Z,100362.48
2024-04-21T07:04:36.866Z,100362.86
2024-04-21T07:07:05.040Z,100357.73
2024-04-21T07:09:33.644Z,100353.11
2024-04-21T07:12:01.827Z,100353.30
2024-04-21T07:14:29.845Z,100353.30
2024-04-21T07:16:57.617Z,100352.21
2024-04-21T07:19:25.709Z,100352.83
2024-04-21T07:21:58.856Z,100356.46
2024-04-21T07:24:26.877Z,100350.16
2024-04-21T07:26:54.810Z,100349.75
2024-04-21T07:29:23.526Z,100345.61
2024-04-21T07:31:51.697Z,100351.61
2024-04-21T07:34:20.182Z,100351.05
2024-04-21T07:36:48.633Z,100354.22
2024-04-21T07:39:18.737Z,100352.63
2024-04-21T07:41:46.757Z,100352.66
2024-04-21T07:44:14.810Z,100353.56
2024-04-21T07:46:42.855Z,100351.45
2024-04-21T07:49:10.837Z,100349.52
2024-04-21T07:51:39.037Z,100355.36
2024-04-21T07:54:07.481Z,100353.17
2024-04-21T07:56:35.498Z,100347.80
2024-04-21T07:59:03.601Z,100350.29
2024-04-21T08:01:31.753Z,100352.70
2024-04-21T08:03:59.641Z,100355.48
2024-04-21T08:06:27.626Z,100353.91
2024-04-21T08:09:01.030Z,100351.28
2024-04-21T08:11:35.522Z,100352.48
2024-04-21T08:14:03.660Z,100352.77
2024-04-21T08:16:34.304Z,100353.83
2024-04-21T08:19:02.655Z,100354.97
2024-04-21T08:21:30.815Z,100356.50
2024-04-21T08:23:58.810Z,100355.52
2024-04-21T08:26:27.678Z,100352.11
2024-04-21T08:28:55.765Z,100349.78
2024-04-21T08:31:23.869Z,100351.48
2024-04-21T08:33:51.963Z,100345.95
2024-04-21T08:36:20.080Z,100352.80
2024-04-21T08:38:48.134Z,100352.58
2024-04-21T08:41:20.842Z,100359.67
2024-04-21T08:43:49.191Z,100354.41
2024-04-21T08:46:17.533Z,100363.23
2024-04-21T08:48:45.646Z,100356.21
2024-04-21T08:51:14.564Z,100358.42
2024-04-21T08:53:42.528Z,100364.48
2024-04-21T08:56:19.021Z,100367.67
2024-04-21T08:58:51.542Z,100368.48
2024-04-21T09:01:19.974Z,100371.97
2024-04-21T09:03:49.377Z,100368.14
2024-04-21T09:06:17.931Z,100368.77
2024-04-21T09:08:45.773Z,100366.91
2024-04-21T09:11:13.624Z,100365.69
2024-04-21T09:13:41.796Z,100361.83
2024-04-21T09:16:10.924Z,100364.45
2024-04-21T09:18:39.342Z,100367.44
2024-04-21T09:21:07.573Z,100363.91
2024-04-21T09:23:36.051Z,100360.05
2024-04-21T09:26:05.812Z,100358.98
2024-04-21T09:28:34.214Z,100370.21
2024-04-21T09:31:02.232Z,100375.23
2024-04-21T09:33:30.992Z,100376.30
2024-04-21T09:35:59.744Z,100368.77
2024-04-21T09:38:27.929Z,100367.50
2024-04-21T09:40:57.841Z,100365.71
2024-04-21T09:43:28.620Z,100369.27
2024-04-21T09:45:59.128Z,100384.73
2024-04-21T09:48:30.549Z,100387.05
2024-04-21T09:50:58.538Z,100390.23
2024-04-21T09:53:28.134Z,100385.05
2024-04-21T09:55:57.045Z,100385.22
2024-04-21T09:58:26.582Z,100387.00
2024-04-21T10:00:54.945Z,100388.94
2024-04-21T10:03:23.187Z,100383.01
2024-04-21T10:05:52.815Z,100396.54
2024-04-21T10:08:23.005Z,100390.58
2024-04-21T10:10:54.221Z,100394.68
2024-04-21T10:13:23.027Z,100398.43
2024-04-21T10:15:51.770Z,100395.79
2024-04-21T10:18:24.904Z,100395.95
2024-04-21T10:20:54.199Z,100394.02
2024-04-21T10:23:22.157Z,100393.92
2024-04-21T10:25:52.273Z,100399.05
2024-04-21T10:28:26.306Z,100396.03
2024-04-21T10:31:03.670Z,100392.61
2024-04-21T10:33:31.833Z,100399.92
2024-04-21T10:35:59.707Z,100395.16
2024-04-21T10:38:27.502Z,100409.78
2024-04-21T10:40:56.891Z,100405.55
2024-04-21T10:43:26.800Z,100412.55
2024-04-21T10:45:56.078Z,100417.26
2024-04-21T10:48:24.447Z,100406.05
2024-04-21T10:50:52.523Z,100414.34
2024-04-21T10:53:20.786Z,100414.95
2024-04-21T10:55:51.014Z,100406.42
2024-04-21T10:58:20.535Z,100409.41
2024-04-21T11:00:48.785Z,100415.69
2024-04-21T11:03:17.566Z,100410.43
2024-04-21T11:05:54.813Z,100416.45
2024-04-21T11:08:24.855Z,100420.02
2024-04-21T11:10:53.018Z,100417.16
2024-04-21T11:13:22.508Z,100423.73
2024-04-21T11:15:50.562Z,100426.01
2024-04-21T11:18:18.780Z,100419.19
2024-04-21T11:20:47.026Z,100420.61
2024-04-21T11:23:19.758Z,100421.82
2024-04-21T11:25:47.789Z,100421.11
2024-04-21T11:28:17.335Z,100415.44
2024-04-21T11:30:45.640Z,100415.30
2024-04-21T11:33:13.651Z,100409.58
2024-04-21T11:35:42.034Z,100407.05
2024-04-21T11:38:09.810Z,100406.13
2024-04-21T11:40:38.417Z,100404.48
2024-04-21T11:43:06.343Z,100400.65
2024-04-21T11:45:34.479Z,100409.33
2024-04-21T11:48:02.379Z,100402.73
2024-04-21T11:50:30.625Z,100399.45
2024-04-21T11:52:58.418Z,100397.40
2024-04-21T11:55:26.445Z,100396.06
2024-04-21T11:57:54.433Z,100396.77
2024-04-21T12:00:22.520Z,100392.86
2024-04-21T12:02:50.847Z,100389.48
2024-04-21T12:05:18.877Z,100396.21
2024-04-21T12:07:47.186Z,100396.55
2024-04-21T12:10:15.340Z,100394.58
2024-04-21T12:12:43.846Z,100394.59
2024-04-21T12:15:11.703Z,100391.85
2024-04-21T12:17:39.776Z,100391.64
2024-04-21T12:20:08.115Z,100393.02
2024-04-21T12:22:36.087Z,100393.33
2024-04-21T12:25:04.350Z,100389.04
2024-04-21T12:27:32.353Z,100388.23
2024-04-21T12:30:00.672Z,100390.23
2024-04-21T12:32:28.780Z,100379.93
2024-04-21T12:34:56.747Z,100378.33
2024-04-21T12:37:24.902Z,100385.48
2024-04-21T12:39:52.878Z,100378.93
2024-04-21T12:42:20.985Z,100379.39
2024-04-21T12:44:48.790Z,100378.71
2024-04-21T12:47:17.760Z,100377.11
2024-04-21T12:49:45.810Z,100383.45
2024-04-21T12:52:14.563Z,100382.46
2024-04-21T12:54:42.530Z,100381.39
2024-04-21T12:57:10.592Z,100382.49
2024-04-21T12:59:38.586Z,100385.30
2024-04-21T13:02:07.160Z,100389.70
2024-04-21T13:04:35.339Z,100392.09
2024-04-21T13:07:03.294Z,100398.33
2024-04-21T13:09:31.284Z,100411.31
2024-04-21T13:11:59.729Z,100408.08
2024-04-21T13:14:27.705Z,100411.86
2024-04-21T13:16:55.758Z,100412.32
2024-04-21T13:19:28.832Z,100416.35
2024-04-21T13:21:56.875Z,100417.56
2024-04-21T13:24:25.135Z,100418.29
2024-04-21T13:26:53.041Z,100426.55
2024-04-21T13:29:21.180Z,100429.45
2024-04-21T13:31:49.207Z,100430.88
2024-04-21T13:34:17.366Z,100431.94
2024-04-21T13:36:45.623Z,100433.36
2024-04-21T13:39:13.452Z,100438.36
2024-04-21T13:41:41.226Z,100438.58
2024-04-21T13:44:09.585Z,100438.64
2024-04-21T13:46:37.734Z,100442.61
2024-04-21T13:49:05.664Z,100448.86
2024-04-21T13:51:33.851Z,100450.84
2024-04-21T13:54:02.541Z,100448.87
2024-04-21T13:56:31.127Z,100445.02
2024-04-21T13:58:59.225Z,100455.25
2024-04-21T14:01:27.428Z,100451.94
2024-04-21T14:03:56.563Z,100455.69
2024-04-21T14:06:30.357Z,100461.02
2024-04-21T14:08:58.823Z,100458.98
2024-04-21T14:11:26.712Z,100456.46
2024-04-21T14:13:55.112Z,100455.18
2024-04-21T14:16:23.191Z,100453.66
2024-04-21T14:18:52.626Z,100447.08
2024-04-21T14:21:21.778Z,100450.42
2024-04-21T14:23:49.567Z,100452.05
2024-04-21T14:26:17.333Z,100449.95
2024-04-21T14:28:45.901Z,100448.62
2024-04-21T14:31:13.872Z,100448.46
2024-04-21T14:33:41.671Z,100442.67
2024-04-21T14:36:09.461Z,100437.34
2024-04-21T14:38:37.781Z,100443.69
2024-04-21T14:41:05.982Z,100437.77
2024-04-21T14:43:33.874Z,100436.20
2024-04-21T14:46:01.796Z,100434.77
2024-04-21T14:48:30.515Z,100428.70
2024-04-21T14:50:59.068Z,100435.36
2024-04-21T14:53:27.854Z,100437.63
2024-04-21T14:56:00.240Z,100437.80
2024-04-21T14:58:28.550Z,100434.41
2024-04-21T15:00:56.772Z,100440.54
2024-04-21T15:03:25.073Z,100439.52
2024-04-21T15:05:53.390Z,100436.50
2024-04-21T15:08:21.350Z,100439.28
2024-04-21T15:10:50.694Z,100441.60
2024-04-21T15:13:18.885Z,100449.38
2024-04-21T15:15:47.186Z,100449.84
2024-04-21T15:18:15.127Z,100448.02
2024-04-21T15:20:52.025Z,100448.17
2024-04-21T15:23:19.994Z,100452.94
2024-04-21T15:25:48.089Z,100451.90
2024-04-21T15:28:16.022Z,100459.27
2024-04-21T15:30:43.901Z,100461.80
2024-04-21T15:33:12.269Z,100464.02
2024-04-21T15:35:41.789Z,100460.91
2024-04-21T15:38:09.750Z,100462.14
2024-04-21T15:40:37.723Z,100466.02
2024-04-21T15:43:08.204Z,100468.83
2024-04-21T15:45:36.363Z,100469.83
2024-04-21T15:48:04.752Z,100473.04
2024-04-21T15:50:32.852Z,100476.51
2024-04-21T15:53:00.690Z,100488.27
2024-04-21T15:55:29.664Z,100491.31
2024-04-21T15:57:57.834Z,100489.07
2024-04-21T16:00:26.164Z,100487.95
2024-04-21T16:02:54.126Z,100496.18
2024-04-21T16:05:23.774Z,100494.88
2024-04-21T16:07:52.450Z,100497.92
2024-04-21T16:10:21.084Z,100505.86
2024-04-21T16:12:50.516Z,100511.55
2024-04-21T16:15:19.879Z,100514.27
2024-04-21T16:17:50.236Z,100522.98
2024-04-21T16:20:18.528Z,100530.49
2024-04-21T16:22:47.382Z,100525.53
2024-04-21T16:25:15.667Z,100525.46
2024-04-21T16:27:43.562Z,100527.77
2024-04-21T16:30:11.851Z,100530.94
2024-04-21T16:32:42.051Z,100531.49
2024-04-21T16:35:10.678Z,100540.44
2024-04-21T16:37:40.257Z,100544.60
2024-04-21T16:40:08.765Z,100544.40
2024-04-21T16:42:37.021Z,100547.63
2024-04-21T16:45:05.354Z,100555.46
2024-04-21T16:47:36.049Z,100558.00
2024-04-21T16:50:04.378Z,100558.35
2024-04-21T16:52:32.730Z,100567.25
2024-04-21T16:55:00.874Z,100568.19
2024-04-21T16:57:29.909Z,100572.66
2024-04-21T16:59:58.129Z,100573.16
2024-04-21T17:02:26.300Z,100578.08
2024-04-21T17:04:56.911Z,100584.63
2024-04-21T17:07:31.017Z,100591.79
2024-04-21T17:09:59.746Z,100595.96
2024-04-21T17:12:28.062Z,100599.71
2024-04-21T17:14:55.837Z,100605.83
2024-04-21T17:17:23.729Z,100610.83
2024-04-21T17:19:51.790Z,100612.00
2024-04-21T17:22:20.576Z,100612.02
2024-04-21T17:24:48.734Z,100611.47
2024-04-21T17:27:16.804Z,100622.64
2024-04-21T17:29:44.614Z,100626.45
2024-04-21T17:32:12.796Z,100627.45
2024-04-21T17:34:41.123Z,100639.24
2024-04-21T17:37:09.128Z,100641.48
2024-04-21T17:39:37.254Z,100647.66
2024-04-21T17:42:05.458Z,100653.79
2024-04-21T17:44:33.357Z,100657.33
2024-04-21T17:47:02.455Z,100664.35
2024-04-21T17:49:30.668Z,100674.92
2024-04-21T17:51:59.401Z,100676.47
2024-04-21T17:54:27.563Z,100682.34
2024-04-21T17:56:57.625Z,100686.91
2024-04-21T17:59:25.493Z,100686.61
2024-04-21T18:01:53.937Z,100690.18
2024-04-21T18:04:22.122Z,100691.58
2024-04-21T18:06:51.076Z,100699.16
2024-04-21T18:09:18.910Z,100700.17
2024-04-21T18:11:47.596Z,100706.27
2024-04-21T18:14:15.641Z,100711.66
2024-04-21T18:16:43.658Z,100720.49
2024-04-21T18:19:11.607Z,100721.25
2024-04-21T18:21:44.821Z,100729.00
2024-04-21T18:24:12.780Z,100731.02
2024-04-21T18:26:42.445Z,100726.52
2024-04-21T18:29:13.367Z,100740.30
2024-04-21T18:31:41.258Z,100743.19
2024-04-21T18:34:09.396Z,100747.15
2024-04-21T18:36:37.424Z,100751.02
2024-04-21T18:39:05.508Z,100753.38
2024-04-21T18:41:33.785Z,100752.51
2024-04-21T18:44:01.633Z,100759.45
2024-04-21T18:46:30.333Z,100755.80
2024-04-21T18:48:58.945Z,100755.98
2024-04-21T18:51:26.735Z,100756.48
2024-04-21T18:53:55.447Z,100755.10
2024-04-21T18:56:23.239Z,100755.83
2024-04-21T18:58:51.165Z,100751.41
2024-04-21T19:01:19.078Z,100761.56
2024-04-21T19:03:47.261Z,100756.16
2024-04-21T19:06:18.116Z,100758.79
2024-04-21T19:08:46.097Z,100755.26
2024-04-21T19:11:14.283Z,100756.34
2024-04-21T19:13:43.459Z,100761.45
2024-04-21T19:16:12.696Z,100763.31
2024-04-21T19:18:40.780Z,100764.62
2024-04-21T19:21:09.301Z,100764.49
2024-04-21T19:23:38.194Z,100765.02
2024-04-21T19:26:06.003Z,100766.05
2024-04-21T19:28:35.737Z,100771.31
2024-04-21T19:31:04.183Z,100773.82
2024-04-21T19:33:32.106Z,100774.27
2024-04-21T19:36:00.133Z,100773.39
2024-04-21T19:38:28.206Z,100773.77
2024-04-21T19:40:56.149Z,100780.71
2024-04-21T19:43:24.247Z,100780.36
2024-04-21T19:45:54.827Z,100783.41
2024-04-21T19:48:24.588Z,100781.09
2024-04-21T19:50:57.008Z,100781.10
2024-04-21T19:53:25.400Z,100778.12
2024-04-21T19:55:53.595Z,100778.77
2024-04-21T19:58:21.609Z,100777.84
2024-04-21T20:00:52.108Z,100775.27
2024-04-21T20:03:21.335Z,100778.38
2024-04-21T20:05:49.477Z,100776.30
2024-04-21T20:08:17.498Z,100780.03
2024-04-21T20:10:45.575Z,100781.18
2024-04-21T20:13:13.551Z,100782.23
2024-04-21T20:16:00.005Z,100791.09
2024-04-21T20:18:41.191Z,100790.38
2024-04-21T20:21:09.399Z,100794.09
2024-04-21T20:23:37.845Z,100797.25
2024-04-21T20:26:12.780Z,100798.22
2024-04-21T20:28:41.255Z,100797.59
2024-04-21T20:31:15.919Z,100803.05
2024-04-21T20:33:45.519Z,100808.86
2024-04-21T20:36:19.949Z,100811.21
2024-04-21T20:38:48.555Z,100812.81
2024-04-21T20:41:19.266Z,100822.45
2024-04-21T20:43:47.332Z,100825.04
2024-04-21T20:46:23.436Z,100826.34
2024-04-21T20:48:53.492Z,100827.14
2024-04-21T20:51:21.318Z,100832.06
2024-04-21T20:53:49.876Z,100833.15
2024-04-21T20:56:18.182Z,100837.57
2024-04-21T20:58:52.306Z,100844.26
2024-04-21T21:01:21.776Z,100841.97
2024-04-21T21:03:50.819Z,100848.21
2024-04-21T21:06:21.672Z,100853.03
2024-04-21T21:08:49.817Z,100850.88
2024-04-21T21:11:17.739Z,100854.33
2024-04-21T21:13:45.933Z,100863.95
2024-04-21T21:16:13.885Z,100866.13
2024-04-21T21:18:42.081Z,100870.67
2024-04-21T21:21:10.007Z,100875.57
2024-04-21T21:23:37.854Z,100882.70
2024-04-21T21:26:05.790Z,100886.37
2024-04-21T21:28:33.699Z,100890.11
2024-04-21T21:31:02.645Z,100892.95
2024-04-21T21:33:31.019Z,100895.86
2024-04-21T21:35:59.086Z,100897.10
2024-04-21T21:38:27.582Z,100897.09
2024-04-21T21:40:57.422Z,100898.96
2024-04-21T21:43:25.998Z,100902.00
2024-04-21T21:45:53.907Z,100905.61
2024-04-21T21:48:21.730Z,100903.52
2024-04-21T21:50:49.801Z,100905.67
2024-04-21T21:53:17.761Z,100907.77
2024-04-21T21:55:46.352Z,100907.52
2024-04-21T21:58:14.314Z,100907.06
2024-04-21T22:00:42.258Z,100908.36
2024-04-21T22:03:13.469Z,100905.84
2024-04-21T22:05:41.251Z,100910.02
2024-04-21T22:08:09.267Z,100915.35
2024-04-21T22:10:37.046Z,100920.48
2024-04-21T22:13:05.042Z,100924.27
2024-04-21T22:15:32.925Z,100930.02
2024-04-21T22:18:00.981Z,100934.34
2024-04-21T22:20:29.251Z,100932.09
2024-04-21T22:22:57.352Z,100931.95
2024-04-21T22:25:25.447Z,100932.66
2024-04-21T22:27:53.573Z,100942.23
2024-04-21T22:30:21.562Z,100941.23
2024-04-21T22:32:49.650Z,100940.92
2024-04-21T22:35:18.009Z,100947.70
2024-04-21T22:37:46.331Z,100950.77
2024-04-21T22:40:14.591Z,100954.58
2024-04-21T22:42:43.661Z,100952.60
2024-04-21T22:45:11.962Z,100951.48
2024-04-21T22:47:40.248Z,100948.13
2024-04-21T22:50:08.304Z,100947.83
2024-04-21T22:52:36.889Z,100948.31
2024-04-21T22:55:05.228Z,100944.48
2024-04-21T22:57:33.195Z,100944.38
2024-04-21T23:00:00.967Z,100943.04
2024-04-21T23:02:29.056Z,100942.19
2024-04-21T23:04:57.238Z,100945.71
2024-04-21T23:07:25.517Z,100944.13
2024-04-21T23:09:53.527Z,100949.81
2024-04-21T23:12:21.321Z,100945.26
2024-04-21T23:14:49.575Z,100940.41
2024-04-21T23:17:17.371Z,100941.02
2024-04-21T23:19:45.211Z,100939.67
2024-04-21T23:22:13.429Z,100938.58
2024-04-21T23:24:41.547Z,100938.07
2024-04-21T23:27:09.637Z,100945.91
2024-04-21T23:29:37.718Z,100939.65
2024-04-21T23:32:05.787Z,100938.65
2024-04-21T23:34:34.033Z,100939.23
2024-04-21T23:37:02.338Z,100936.04
2024-04-21T23:39:30.151Z,100936.72
2024-04-21T23:41:57.923Z,100942.27
2024-04-21T23:44:25.719Z,100946.08
2024-04-21T23:46:53.842Z,100957.64
2024-04-21T23:49:21.749Z,100966.20
2024-04-21T23:51:50.724Z,100971.03
2024-04-21T23:54:18.704Z,100973.48
2024-04-21T23:56:46.980Z,100972.32
2024-04-21T23:59:17.813Z,100972.84
